createdAt,value
2023-07-08T00:01:15.081Z,18.46
2023-07-08T00:03:43.046Z,18.46
2023-07-08T00:06:21.260Z,18.45
2023-07-08T00:08:48.597Z,18.24
2023-07-08T00:11:17.041Z,18.22
2023-07-08T00:13:44.144Z,18.26
2023-07-08T00:16:13.549Z,18.21
2023-07-08T00:18:40.905Z,18.18
2023-07-08T00:21:16.886Z,18.13
2023-07-08T00:23:51.195Z,18.03
2023-07-08T00:26:30.677Z,17.95
2023-07-08T00:28:58.161Z,17.77
2023-07-08T00:31:26.937Z,17.92
2023-07-08T00:33:58.924Z,17.88
2023-07-08T00:36:28.476Z,17.82
2023-07-08T00:38:55.984Z,17.80
2023-07-08T00:41:28.728Z,17.63
2023-07-08T00:43:57.208Z,17.62
2023-07-08T00:46:33.622Z,17.54
2023-07-08T00:49:10.052Z,17.54
2023-07-08T00:51:40.091Z,17.56
2023-07-08T00:54:11.754Z,17.45
2023-07-08T00:56:48.375Z,17.48
2023-07-08T00:59:19.767Z,17.31
2023-07-08T01:01:47.754Z,17.30
2023-07-08T01:04:23.710Z,17.26
2023-07-08T01:06:58.407Z,17.24
2023-07-08T01:09:30.036Z,17.25
2023-07-08T01:12:02.613Z,17.25
2023-07-08T01:14:33.798Z,17.21
2023-07-08T01:17:01.307Z,17.18
2023-07-08T01:19:35.537Z,16.89
2023-07-08T01:22:06.872Z,17.06
2023-07-08T01:24:37.796Z,16.90
2023-07-08T01:27:07.985Z,16.86
2023-07-08T01:29:35.609Z,16.89
2023-07-08T01:32:06.784Z,16.75
2023-07-08T01:34:35.401Z,16.68
2023-07-08T01:37:05.444Z,16.78
2023-07-08T01:39:33.966Z,16.72
2023-07-08T01:42:01.861Z,16.45
2023-07-08T01:44:37.190Z,16.54
2023-07-08T01:47:07.348Z,16.55
2023-07-08T01:49:37.351Z,16.49
2023-07-08T01:52:05.064Z,16.57
2023-07-08T01:54:32.314Z,16.56
2023-07-08T01:56:59.831Z,16.54
2023-07-08T01:59:26.973Z,16.39
2023-07-08T02:01:56.570Z,16.35
2023-07-08T02:04:25.734Z,16.28
2023-07-08T02:06:57.926Z,16.39
2023-07-08T02:09:26.222Z,16.38
2023-07-08T02:11:54.625Z,16.24
2023-07-08T02:14:22.093Z,16.15
2023-07-08T02:16:49.176Z,16.22
2023-07-08T02:19:16.375Z,16.13
2023-07-08T02:21:44.251Z,16.03
2023-07-08T02:24:11.584Z,16.07
2023-07-08T02:26:38.643Z,16.02
2023-07-08T02:29:06.031Z,16.00
2023-07-08T02:31:33.047Z,16.04
2023-07-08T02:34:01.268Z,16.08
2023-07-08T02:36:28.303Z,15.93
2023-07-08T02:38:55.225Z,15.88
2023-07-08T02:41:22.370Z,15.80
2023-07-08T02:43:49.401Z,15.79
2023-07-08T02:46:16.432Z,15.76
2023-07-08T02:48:43.542Z,15.66
2023-07-08T02:51:11.105Z,15.67
2023-07-08T02:53:38.252Z,15.72
2023-07-08T02:56:05.201Z,15.52
2023-07-08T02:58:33.191Z,15.64
2023-07-08T03:01:02.423Z,15.56
2023-07-08T03:03:30.481Z,15.56
2023-07-08T03:06:00.215Z,15.54
2023-07-08T03:08:28.016Z,15.39
2023-07-08T03:11:02.366Z,15.58
2023-07-08T03:13:30.958Z,15.55
2023-07-08T03:16:00.408Z,15.45
2023-07-08T03:18:28.241Z,15.47
2023-07-08T03:20:57.549Z,15.54
2023-07-08T03:23:25.958Z,15.65
2023-07-08T03:25:53.563Z,15.59
2023-07-08T03:28:20.816Z,15.73
2023-07-08T03:30:53.950Z,15.64
2023-07-08T03:33:21.482Z,15.72
2023-07-08T03:35:49.324Z,15.81
2023-07-08T03:38:16.990Z,15.81
2023-07-08T03:40:45.481Z,15.78
2023-07-08T03:43:12.664Z,15.94
2023-07-08T03:45:39.784Z,15.90
2023-07-08T03:48:07.279Z,15.88
2023-07-08T03:50:34.376Z,15.97
2023-07-08T03:53:01.419Z,16.08
2023-07-08T03:55:29.606Z,16.21
2023-07-08T03:57:56.513Z,16.40
2023-07-08T04:00:23.839Z,16.52
2023-07-08T04:02:50.886Z,16.55
2023-07-08T04:05:20.946Z,16.50
2023-07-08T04:07:48.926Z,16.63
2023-07-08T04:10:18.056Z,16.65
2023-07-08T04:12:45.452Z,16.74
2023-07-08T04:15:13.402Z,16.80
2023-07-08T04:17:50.126Z,16.88
2023-07-08T04:20:19.853Z,16.99
2023-07-08T04:22:47.638Z,17.04
2023-07-08T04:25:15.683Z,17.16
2023-07-08T04:27:43.188Z,16.97
2023-07-08T04:30:21.251Z,17.27
2023-07-08T04:32:48.542Z,17.35
2023-07-08T04:35:15.830Z,17.37
2023-07-08T04:37:42.911Z,17.37
2023-07-08T04:40:22.415Z,17.47
2023-07-08T04:42:50.384Z,17.63
2023-07-08T04:45:18.632Z,17.79
2023-07-08T04:47:48.215Z,17.86
2023-07-08T04:50:15.232Z,17.76
2023-07-08T04:52:42.255Z,17.83
2023-07-08T04:55:10.749Z,17.99
2023-07-08T04:57:37.757Z,18.02
2023-07-08T05:00:09.499Z,17.93
2023-07-08T05:02:36.546Z,18.09
2023-07-08T05:05:04.541Z,18.17
2023-07-08T05:07:31.546Z,18.27
2023-07-08T05:09:59.269Z,18.39
2023-07-08T05:12:27.800Z,18.61
2023-07-08T05:14:54.887Z,18.73
2023-07-08T05:17:21.844Z,18.72
2023-07-08T05:19:52.186Z,18.91
2023-07-08T05:22:20.176Z,19.14
2023-07-08T05:24:48.230Z,19.08
2023-07-08T05:27:16.290Z,19.28
2023-07-08T05:29:44.378Z,19.35
2023-07-08T05:32:11.504Z,19.19
2023-07-08T05:34:38.514Z,19.16
2023-07-08T05:37:06.012Z,19.15
2023-07-08T05:39:32.982Z,18.82
2023-07-08T05:42:00.142Z,18.92
2023-07-08T05:44:27.200Z,19.04
2023-07-08T05:46:54.206Z,19.13
2023-07-08T05:49:21.512Z,19.22
2023-07-08T05:51:48.713Z,19.27
2023-07-08T05:54:16.042Z,19.51
2023-07-08T05:56:42.965Z,19.49
2023-07-08T05:59:09.926Z,19.58
2023-07-08T06:01:36.997Z,19.78
2023-07-08T06:04:04.077Z,19.99
2023-07-08T06:06:31.476Z,19.92
2023-07-08T06:08:58.600Z,20.04
2023-07-08T06:11:25.579Z,20.06
2023-07-08T06:13:52.699Z,20.11
2023-07-08T06:16:31.299Z,20.28
2023-07-08T06:19:06.898Z,20.34
2023-07-08T06:21:34.160Z,20.64
2023-07-08T06:24:01.359Z,20.82
2023-07-08T06:26:28.471Z,21.16
2023-07-08T06:28:55.580Z,21.37
2023-07-08T06:31:22.572Z,21.45
2023-07-08T06:33:49.538Z,21.52
2023-07-08T06:36:16.549Z,21.65
2023-07-08T06:38:43.762Z,21.56
2023-07-08T06:41:10.620Z,21.75
2023-07-08T06:43:37.793Z,22.03
2023-07-08T06:46:04.832Z,22.03
2023-07-08T06:48:32.503Z,22.12
2023-07-08T06:51:00.301Z,21.95
2023-07-08T06:53:27.417Z,22.19
2023-07-08T06:55:54.443Z,22.29
2023-07-08T06:58:21.602Z,22.39
2023-07-08T07:00:48.520Z,22.43
2023-07-08T07:03:15.545Z,22.38
2023-07-08T07:05:44.100Z,22.48
2023-07-08T07:08:11.130Z,22.52
2023-07-08T07:10:38.785Z,22.61
2023-07-08T07:13:05.695Z,22.46
2023-07-08T07:15:33.582Z,22.57
2023-07-08T07:18:00.962Z,22.73
2023-07-08T07:20:28.242Z,22.82
2023-07-08T07:22:55.296Z,23.01
2023-07-08T07:25:22.641Z,23.18
2023-07-08T07:27:49.653Z,23.36
2023-07-08T07:30:16.767Z,23.31
2023-07-08T07:32:44.293Z,23.45
2023-07-08T07:35:16.340Z,23.52
2023-07-08T07:37:44.173Z,23.70
2023-07-08T07:40:13.993Z,23.77
2023-07-08T07:42:42.233Z,23.92
2023-07-08T07:45:10.127Z,23.91
2023-07-08T07:47:37.667Z,23.99
2023-07-08T07:50:06.638Z,24.06
2023-07-08T07:52:33.977Z,24.04
2023-07-08T07:55:01.023Z,24.25
2023-07-08T07:57:27.955Z,24.08
2023-07-08T07:59:54.913Z,24.22
2023-07-08T08:02:21.962Z,24.46
2023-07-08T08:04:48.924Z,24.46
2023-07-08T08:07:15.916Z,24.60
2023-07-08T08:09:42.970Z,24.69
2023-07-08T08:12:12.251Z,24.66
2023-07-08T08:14:40.388Z,24.65
2023-07-08T08:17:07.821Z,24.81
2023-07-08T08:19:34.919Z,24.69
2023-07-08T08:22:02.076Z,24.92
2023-07-08T08:24:28.933Z,25.05
2023-07-08T08:26:56.186Z,25.11
2023-07-08T08:29:23.252Z,25.30
2023-07-08T08:31:51.819Z,25.39
2023-07-08T08:34:19.096Z,25.48
2023-07-08T08:36:46.080Z,25.39
2023-07-08T08:39:13.334Z,25.65
2023-07-08T08:41:44.046Z,25.81
2023-07-08T08:44:18.317Z,25.67
2023-07-08T08:47:10.738Z,26.00
2023-07-08T08:49:47.902Z,26.19
2023-07-08T08:52:15.989Z,26.49
2023-07-08T08:54:44.799Z,26.59
2023-07-08T08:57:20.930Z,26.71
2023-07-08T08:59:55.235Z,26.90
2023-07-08T09:02:41.074Z,27.17
2023-07-08T09:05:12.904Z,27.58
2023-07-08T09:08:01.690Z,27.88
2023-07-08T09:10:43.702Z,28.11
2023-07-08T09:13:20.742Z,28.37
2023-07-08T09:15:49.573Z,28.54
2023-07-08T09:18:26.686Z,29.41
2023-07-08T09:20:56.907Z,30.38
2023-07-08T09:23:31.060Z,30.69
2023-07-08T09:26:04.084Z,30.74
2023-07-08T09:28:43.006Z,31.14
2023-07-08T09:31:38.157Z,31.79
2023-07-08T09:34:21.595Z,31.68
2023-07-08T09:36:50.411Z,32.47
2023-07-08T09:39:19.565Z,32.16
2023-07-08T09:41:48.621Z,33.04
2023-07-08T09:44:30.178Z,32.83
2023-07-08T09:46:59.754Z,32.35
2023-07-08T09:49:36.276Z,32.55
2023-07-08T09:52:05.626Z,32.52
2023-07-08T09:54:33.945Z,32.63
2023-07-08T09:57:12.967Z,33.32
2023-07-08T09:59:48.252Z,33.35
2023-07-08T10:02:27.040Z,34.08
2023-07-08T10:04:56.632Z,33.69
2023-07-08T10:07:24.432Z,33.10
2023-07-08T10:09:55.667Z,33.71
2023-07-08T10:12:24.932Z,33.95
2023-07-08T10:14:57.590Z,34.78
2023-07-08T10:17:24.641Z,34.46
2023-07-08T10:19:51.633Z,34.37
2023-07-08T10:22:36.089Z,34.34
2023-07-08T10:25:32.258Z,34.75
2023-07-08T10:28:19.189Z,34.80
2023-07-08T10:31:04.246Z,35.46
2023-07-08T10:33:57.282Z,34.35
2023-07-08T10:36:54.516Z,32.62
2023-07-08T10:39:30.385Z,32.05
2023-07-08T10:42:20.151Z,31.10
2023-07-08T10:45:10.920Z,30.82
2023-07-08T10:47:58.926Z,30.56
2023-07-08T10:50:52.337Z,31.28
2023-07-08T10:53:51.949Z,32.57
2023-07-08T10:56:45.343Z,34.00
2023-07-08T10:59:33.480Z,35.01
2023-07-08T11:02:52.860Z,35.40
2023-07-08T11:05:42.576Z,35.77
2023-07-08T11:08:27.397Z,36.90
2023-07-08T11:11:15.288Z,35.86
2023-07-08T11:13:54.705Z,34.60
2023-07-08T11:16:33.947Z,35.19
2023-07-08T11:19:11.750Z,35.20
2023-07-08T11:21:52.183Z,35.50
2023-07-08T11:24:36.560Z,36.37
2023-07-08T11:27:28.917Z,37.12
2023-07-08T11:30:00.156Z,37.64
2023-07-08T11:32:31.073Z,37.41
2023-07-08T11:35:00.728Z,36.63
2023-07-08T11:37:29.345Z,37.31
2023-07-08T11:40:10.246Z,36.02
2023-07-08T11:42:58.766Z,36.41
2023-07-08T11:45:34.426Z,36.17
2023-07-08T11:48:39.303Z,37.55
2023-07-08T11:51:06.954Z,38.42
2023-07-08T11:53:47.361Z,38.05
2023-07-08T11:56:16.863Z,38.93
2023-07-08T11:59:10.666Z,38.29
2023-07-08T12:01:48.156Z,37.70
2023-07-08T12:04:24.346Z,37.20
2023-07-08T12:07:16.528Z,36.99
2023-07-08T12:09:58.622Z,37.20
2023-07-08T12:12:30.770Z,36.72
2023-07-08T12:15:16.376Z,37.35
2023-07-08T12:17:43.552Z,37.66
2023-07-08T12:20:28.576Z,37.46
2023-07-08T12:22:55.632Z,37.99
2023-07-08T12:25:25.838Z,38.31
2023-07-08T12:27:52.920Z,38.60
2023-07-08T12:30:20.047Z,38.08
2023-07-08T12:32:47.692Z,38.57
2023-07-08T12:35:20.469Z,37.85
2023-07-08T12:37:47.539Z,38.89
2023-07-08T12:40:15.190Z,37.97
2023-07-08T12:42:42.069Z,39.44
2023-07-08T12:45:17.185Z,39.72
2023-07-08T12:47:45.415Z,38.11
2023-07-08T12:50:13.561Z,39.34
2023-07-08T12:52:41.938Z,38.00
2023-07-08T12:55:11.710Z,39.52
2023-07-08T12:57:42.536Z,39.28
2023-07-08T13:00:28.672Z,39.65
2023-07-08T13:03:15.070Z,39.09
2023-07-08T13:05:43.360Z,37.67
2023-07-08T13:08:19.801Z,38.85
2023-07-08T13:10:47.957Z,38.10
2023-07-08T13:13:50.197Z,39.16
2023-07-08T13:16:17.864Z,38.14
2023-07-08T13:18:45.156Z,39.27
2023-07-08T13:21:15.376Z,40.68
2023-07-08T13:23:43.840Z,40.59
2023-07-08T13:26:16.827Z,38.48
2023-07-08T13:28:46.451Z,39.89
2023-07-08T13:31:25.416Z,39.88
2023-07-08T13:33:55.065Z,38.83
2023-07-08T13:36:37.734Z,40.76
2023-07-08T13:39:09.566Z,39.05
2023-07-08T13:41:37.638Z,39.66
2023-07-08T13:44:09.722Z,38.66
2023-07-08T13:46:59.009Z,39.49
2023-07-08T13:49:41.056Z,39.38
2023-07-08T13:52:13.917Z,40.76
2023-07-08T13:54:51.453Z,40.49
2023-07-08T13:57:20.914Z,40.24
2023-07-08T13:59:47.921Z,39.25
2023-07-08T14:02:19.136Z,40.29
2023-07-08T14:04:46.659Z,40.49
2023-07-08T14:07:18.425Z,40.07
2023-07-08T14:09:45.720Z,39.16
2023-07-08T14:12:13.305Z,40.14
2023-07-08T14:14:43.014Z,40.13
2023-07-08T14:17:13.347Z,39.95
2023-07-08T14:19:40.401Z,39.96
2023-07-08T14:22:31.009Z,39.36
2023-07-08T14:25:05.741Z,40.34
2023-07-08T14:27:32.747Z,38.93
2023-07-08T14:29:59.637Z,37.04
2023-07-08T14:32:31.578Z,38.50
2023-07-08T14:35:16.483Z,39.46
2023-07-08T14:37:43.927Z,40.17
2023-07-08T14:40:47.092Z,39.89
2023-07-08T14:43:19.126Z,40.96
2023-07-08T14:45:54.055Z,40.93
2023-07-08T14:48:21.350Z,39.36
2023-07-08T14:50:48.944Z,40.67
2023-07-08T14:53:17.476Z,41.23
2023-07-08T14:55:47.318Z,39.78
2023-07-08T14:58:19.176Z,40.01
2023-07-08T15:00:46.158Z,39.19
2023-07-08T15:03:13.101Z,39.19
2023-07-08T15:05:40.269Z,39.35
2023-07-08T15:08:07.468Z,38.36
2023-07-08T15:10:36.007Z,38.42
2023-07-08T15:13:04.482Z,39.37
2023-07-08T15:15:40.845Z,39.15
2023-07-08T15:18:14.106Z,39.10
2023-07-08T15:20:42.281Z,38.76
2023-07-08T15:23:11.136Z,38.32
2023-07-08T15:25:39.127Z,37.89
2023-07-08T15:28:06.536Z,37.29
2023-07-08T15:30:33.564Z,35.48
2023-07-08T15:33:00.628Z,35.53
2023-07-08T15:35:35.002Z,35.13
2023-07-08T15:38:05.257Z,35.09
2023-07-08T15:40:36.071Z,35.33
2023-07-08T15:43:04.574Z,35.86
2023-07-08T15:45:38.566Z,35.96
2023-07-08T15:48:06.355Z,35.78
2023-07-08T15:50:33.410Z,34.98
2023-07-08T15:53:00.739Z,35.01
2023-07-08T15:55:34.914Z,34.39
2023-07-08T15:58:05.950Z,33.10
2023-07-08T16:00:37.131Z,33.04
2023-07-08T16:03:25.920Z,32.92
2023-07-08T16:05:54.313Z,32.52
2023-07-08T16:08:23.321Z,32.21
2023-07-08T16:10:56.193Z,32.38
2023-07-08T16:13:27.504Z,32.11
2023-07-08T16:15:55.490Z,32.12
2023-07-08T16:18:23.538Z,32.22
2023-07-08T16:20:50.839Z,31.81
2023-07-08T16:23:18.232Z,32.15
2023-07-08T16:25:49.333Z,31.89
2023-07-08T16:28:41.950Z,32.00
2023-07-08T16:31:23.582Z,31.93
2023-07-08T16:33:50.779Z,31.98
2023-07-08T16:36:21.108Z,32.32
2023-07-08T16:38:49.138Z,32.54
2023-07-08T16:41:18.293Z,32.45
2023-07-08T16:43:45.307Z,32.17
2023-07-08T16:46:15.051Z,31.78
2023-07-08T16:48:44.374Z,31.35
2023-07-08T16:51:23.513Z,31.25
2023-07-08T16:53:50.605Z,31.09
2023-07-08T16:56:22.216Z,30.95
2023-07-08T16:58:49.189Z,30.92
2023-07-08T17:01:21.578Z,30.80
2023-07-08T17:03:51.104Z,30.56
2023-07-08T17:06:18.201Z,30.61
2023-07-08T17:08:45.698Z,30.47
2023-07-08T17:11:18.031Z,30.41
2023-07-08T17:13:46.090Z,30.35
2023-07-08T17:16:17.800Z,30.33
2023-07-08T17:18:47.117Z,30.18
2023-07-08T17:21:15.763Z,30.16
2023-07-08T17:23:43.519Z,29.96
2023-07-08T17:26:10.473Z,29.95
2023-07-08T17:28:37.367Z,29.90
2023-07-08T17:31:05.926Z,29.74
2023-07-08T17:33:33.319Z,29.72
2023-07-08T17:36:01.159Z,29.54
2023-07-08T17:38:40.403Z,29.39
2023-07-08T17:41:11.590Z,29.28
2023-07-08T17:43:40.411Z,29.12
2023-07-08T17:46:12.842Z,28.93
2023-07-08T17:48:40.730Z,28.95
2023-07-08T17:51:09.648Z,28.79
2023-07-08T17:53:36.649Z,28.69
2023-07-08T17:56:04.133Z,28.70
2023-07-08T17:58:34.847Z,28.64
2023-07-08T18:01:01.835Z,28.50
2023-07-08T18:03:28.869Z,28.28
2023-07-08T18:05:56.071Z,27.97
2023-07-08T18:08:23.232Z,27.86
2023-07-08T18:10:50.244Z,27.84
2023-07-08T18:13:23.616Z,27.78
2023-07-08T18:15:50.640Z,27.73
2023-07-08T18:18:17.734Z,27.66
2023-07-08T18:20:51.518Z,27.63
2023-07-08T18:23:21.712Z,27.52
2023-07-08T18:25:49.174Z,27.31
2023-07-08T18:28:16.772Z,27.07
2023-07-08T18:30:45.004Z,26.94
2023-07-08T18:33:17.633Z,26.86
2023-07-08T18:35:47.002Z,26.74
2023-07-08T18:38:14.505Z,26.62
2023-07-08T18:40:43.730Z,26.52
2023-07-08T18:43:21.483Z,26.34
2023-07-08T18:45:49.665Z,26.20
2023-07-08T18:48:18.893Z,26.17
2023-07-08T18:50:53.349Z,25.94
2023-07-08T18:53:21.064Z,25.90
2023-07-08T18:55:48.918Z,25.77
2023-07-08T18:58:20.230Z,25.66
2023-07-08T19:00:48.664Z,25.49
2023-07-08T19:03:29.547Z,25.44
2023-07-08T19:05:56.988Z,25.24
2023-07-08T19:08:24.233Z,25.04
2023-07-08T19:10:56.567Z,24.96
2023-07-08T19:13:27.445Z,24.91
2023-07-08T19:15:55.649Z,24.75
2023-07-08T19:18:23.289Z,24.57
2023-07-08T19:20:52.106Z,24.42
2023-07-08T19:23:22.828Z,24.49
2023-07-08T19:25:49.938Z,24.45
2023-07-08T19:28:17.155Z,24.32
2023-07-08T19:30:51.460Z,24.22
2023-07-08T19:33:19.144Z,24.01
2023-07-08T19:35:47.682Z,23.80
2023-07-08T19:38:16.603Z,23.82
2023-07-08T19:40:51.555Z,23.70
2023-07-08T19:43:22.763Z,23.40
2023-07-08T19:45:49.858Z,23.20
2023-07-08T19:48:17.229Z,23.12
2023-07-08T19:50:44.267Z,23.05
2023-07-08T19:53:12.674Z,22.78
2023-07-08T19:55:41.104Z,22.98
2023-07-08T19:58:14.218Z,23.02
2023-07-08T20:00:52.545Z,22.92
2023-07-08T20:03:19.606Z,22.94
2023-07-08T20:05:46.689Z,22.75
2023-07-08T20:08:23.104Z,22.71
2023-07-08T20:10:55.133Z,22.75
2023-07-08T20:13:28.129Z,22.70
2023-07-08T20:15:55.164Z,22.49
2023-07-08T20:18:29.191Z,22.40
2023-07-08T20:21:00.244Z,22.39
2023-07-08T20:23:28.854Z,22.33
2023-07-08T20:25:56.909Z,22.27
2023-07-08T20:31:01.579Z,22.16
2023-07-08T20:33:28.688Z,22.04
2023-07-08T20:35:55.994Z,22.08
2023-07-08T20:38:22.996Z,21.87
2023-07-08T20:40:49.918Z,21.47
2023-07-08T20:43:20.443Z,21.62
2023-07-08T20:45:49.489Z,21.62
2023-07-08T20:48:23.709Z,21.72
2023-07-08T20:50:51.703Z,21.71
2023-07-08T20:53:19.819Z,21.47
2023-07-08T20:55:48.164Z,21.65
2023-07-08T20:58:20.900Z,21.63
2023-07-08T21:00:48.798Z,21.35
2023-07-08T21:03:20.327Z,21.54
2023-07-08T21:05:50.787Z,21.43
2023-07-08T21:08:17.795Z,21.29
2023-07-08T21:10:45.010Z,21.19
2023-07-08T21:13:11.939Z,21.19
2023-07-08T21:15:39.361Z,21.07
2023-07-08T21:18:14.556Z,20.85
2023-07-08T21:20:41.903Z,21.03
2023-07-08T21:23:14.585Z,20.95
2023-07-08T21:25:42.082Z,20.83
2023-07-08T21:28:21.224Z,20.63
2023-07-08T21:30:48.177Z,20.67
2023-07-08T21:33:15.182Z,20.54
2023-07-08T21:35:42.747Z,20.60
2023-07-08T21:38:13.086Z,20.45
2023-07-08T21:40:51.561Z,20.48
2023-07-08T21:43:20.947Z,20.37
2023-07-08T21:45:48.080Z,20.37
2023-07-08T21:48:16.906Z,20.15
2023-07-08T21:51:02.883Z,20.25
2023-07-08T21:53:36.683Z,20.13
2023-07-08T21:56:05.072Z,20.15
2023-07-08T21:58:32.418Z,19.93
2023-07-08T22:00:59.816Z,20.01
2023-07-08T22:03:28.739Z,19.74
2023-07-08T22:05:57.022Z,19.81
2023-07-08T22:08:26.300Z,19.78
2023-07-08T22:11:00.281Z,19.72
2023-07-08T22:13:30.509Z,19.62
2023-07-08T22:16:04.083Z,19.55
2023-07-08T22:18:31.412Z,19.38
2023-07-08T22:21:01.924Z,19.47
2023-07-08T22:23:30.871Z,19.35
2023-07-08T22:25:58.841Z,19.44
2023-07-08T22:28:27.067Z,19.37
2023-07-08T22:30:54.155Z,19.30
2023-07-08T22:33:24.816Z,19.29
2023-07-08T22:35:53.491Z,19.28
2023-07-08T22:38:20.648Z,19.09
2023-07-08T22:40:49.218Z,19.18
2023-07-08T22:43:30.520Z,19.08
2023-07-08T22:45:58.216Z,19.11
2023-07-08T22:48:26.722Z,19.04
2023-07-08T22:51:05.496Z,18.99
2023-07-08T22:53:35.509Z,18.97
2023-07-08T22:56:03.264Z,18.83
2023-07-08T22:58:33.449Z,18.80
2023-07-08T23:01:01.475Z,18.77
2023-07-08T23:03:28.599Z,18.77
2023-07-08T23:05:59.361Z,18.76
2023-07-08T23:08:32.716Z,18.74
2023-07-08T23:11:00.703Z,18.76
2023-07-08T23:13:40.454Z,18.75
2023-07-08T23:16:16.653Z,18.71
2023-07-08T23:18:47.384Z,18.65
2023-07-08T23:21:17.085Z,18.50
2023-07-08T23:23:44.410Z,18.49
2023-07-08T23:26:22.373Z,18.57
2023-07-08T23:28:53.100Z,18.57
2023-07-08T23:31:20.311Z,18.53
2023-07-08T23:33:47.925Z,18.52
2023-07-08T23:36:34.949Z,18.44
2023-07-08T23:39:04.870Z,18.19
2023-07-08T23:41:33.347Z,18.22
2023-07-08T23:44:00.556Z,18.09
2023-07-08T23:46:31.074Z,18.07
2023-07-08T23:48:59.613Z,18.14
2023-07-08T23:51:27.355Z,18.18
2023-07-08T23:53:54.446Z,18.21
2023-07-08T23:56:33.001Z,18.01
2023-07-08T23:59:02.440Z,18.02
